This is the latest recevied weather packets stored in our database for station/object N3DOU-1. If no packets are shown the sender has not sent any weather packets the latest 1 day(s).
| Time | Temp. | Humidity | Pressure | Rain* | Wind** | Luminosity | Snow |
|---|---|---|---|---|---|---|---|
| 1778002885 | 27.22° C | 44% | 1010.9 hPa | 0 mm | 1.34 m/s, 190° | - | - |
| 1778001984 | 27.22° C | 45% | 1011.2 hPa | 0 mm | 2.24 m/s, 207° | - | - |
| 1778001085 | 26.67° C | 46% | 1011.3 hPa | 0 mm | 1.34 m/s, 178° | - | - |
| 1778000183 | 26.11° C | 49% | 1011.4 hPa | 0 mm | 0.89 m/s, 244° | - | - |
| 1777999283 | 25.56° C | 49% | 1011.6 hPa | 0 mm | 0.89 m/s, 218° | - | - |
| 1777998384 | 26.11° C | 50% | 1011.7 hPa | 0 mm | 0.89 m/s, 207° | - | - |
| 1777997484 | 25.56° C | 49% | 1011.7 hPa | 0 mm | 0.89 m/s, 130° | - | - |
| 1777996584 | 25.56° C | 51% | 1011.8 hPa | 0 mm | 0.45 m/s, 189° | - | - |
| 1777995683 | 25° C | 51% | 1012 hPa | 0 mm | 1.34 m/s, 258° | - | - |
| 1777994784 | 25° C | 51% | 1011.8 hPa | 0 mm | 1.34 m/s, 203° | - | - |
| 1777993884 | 24.44° C | 54% | 1012 hPa | 0 mm | 0.89 m/s, 159° | - | - |
| 1777992983 | 24.44° C | 51% | 1012 hPa | 0 mm | 2.24 m/s, 175° | - | - |
| 1777991184 | 23.33° C | 52% | 1012 hPa | 0 mm | 1.34 m/s, 225° | - | - |
| 1777990288 | 22.78° C | 52% | 1012 hPa | 0 mm | 0.89 m/s, 234° | - | - |
| 1777989383 | 22.22° C | 54% | 1012.1 hPa | 0 mm | 0.89 m/s, 198° | - | - |
| 1777988483 | 21.67° C | 53% | 1012.2 hPa | 0 mm | 2.24 m/s, 219° | - | - |
| 1777987583 | 21.67° C | 56% | 1012.4 hPa | 0 mm | 0.45 m/s, 270° | - | - |
| 1777986684 | 21.11° C | 55% | 1012.5 hPa | 0 mm | 2.24 m/s, 234° | - | - |
| 1777985784 | 20.56° C | 60% | 1012.4 hPa | 0 mm | 1.34 m/s, 243° | - | - |
| 1777983983 | 18.89° C | 62% | 1012.2 hPa | 0 mm | 1.34 m/s, 236° | - | - |
| 1777983084 | 18.33° C | 63% | 1012.2 hPa | 0 mm | 1.34 m/s, 224° | - | - |
| 1777982183 | 18.33° C | 65% | 1012.1 hPa | 0 mm | 0.89 m/s, 203° | - | - |
| 1777978583 | 16.11° C | 72% | 1011.7 hPa | 0 mm | 0.89 m/s, 198° | - | - |
| 1777976783 | 16.11° C | 72% | 1011.2 hPa | 0 mm | 1.34 m/s, 219° | - | - |
| 1777975885 | 15.56° C | 73% | 1011.1 hPa | 0 mm | 0.89 m/s, 213° | - | - |
* Rain latest hour (hover to see other rain measurements)
** Current wind speed in m/s (hover to see current wind gust speed)